Flight Track Log - Related Links

Times and Time Zones

All times are in EDT time to prevent confusion due to time zone crossing. See the EJA122 flight status page for this flight to view local times or setup timezone preferences in your user account.

Time Position Orientation Groundspeed Altitude Reporting Facility
EDT Latitude Longitude Course Direction KTS MPH feet Rate Location/Type
Sat 05:26:38 PM 43.5800 -110.7522 135° Southeast 188 216 7,200  Level Salt Lake Center
Sat 05:27:40 PM 43.5275 -110.7914 208° Southwest 214 246 10,200 2,952 Climbing Salt Lake Center
Sat 05:28:42 PM 43.4678 -110.8283 204° Southwest 228 262 13,300 2,806 Climbing Salt Lake Center
Sat 05:29:44 PM 43.3842 -110.8242 178° South 292 336 16,000 1,790 Climbing Salt Lake Center
Sat 05:30:46 PM 43.3636 -110.6992 103° East 349 402 17,000 484 Climbing Salt Lake Center
Sat 05:31:00 PM 43.1240 -110.8539 135° Southeast  Level FlightAware Approximate
Sat 05:31:48 PM 43.3472 -110.5494 99° East 399 459 17,000  Level Salt Lake Center
Sat 05:32:50 PM 43.3286 -110.3911 99° East 420 483 17,000  Level Salt Lake Center
Sat 05:33:52 PM 43.3111 -110.2494 100° East 387 445 17,000 -48 Level Salt Lake Center
Sat 05:34:54 PM 43.2900 -110.0942 101° East 349 402 16,900 -48 Descending Salt Lake Center
Sat 05:35:56 PM 43.2736 -109.9653 100° East 335 386 16,900  Level Salt Lake Center
Sat 05:36:58 PM 43.2578 -109.8469 100° East 331 381 16,900 98 Level Salt Lake Center
Sat 05:37:59 PM 43.2378 -109.7072 101° East 333 383 17,100 98 Climbing Salt Lake Center
Sat 05:39:01 PM 43.2225 -109.5828 100° East 334 384 17,100  Level Salt Lake Center
Sat 05:40:03 PM 43.2047 -109.4592 101° East 333 383 17,100  Level Salt Lake Center
Sat 05:41:05 PM 43.1878 -109.3367 101° East 330 380 17,100 -532 Level Salt Lake Center
Sat 05:42:07 PM 43.1711 -109.2150 101° East 326 375 16,000 -1,113 Descending Salt Lake Center
Sat 05:43:09 PM 43.1547 -109.0967 101° East 323 372 14,800 -968 Descending Salt Lake Center
Sat 05:44:11 PM 43.1492 -108.9622 93° East 309 356 14,000 -919 Descending Salt Lake Center
Sat 05:45:13 PM 43.1422 -108.8586 95° East 297 342 12,900 -1,065 Descending Salt Lake Center
Sat 05:46:15 PM 43.1183 -108.7592 108° East 284 327 11,800 -1,065 Descending Salt Lake Center

Login

Don't have an account? Register now (free) for customized features, flight alerts, and more!